sensor_id;sensor_type;location;lat;lon;timestamp;pressure;altitude;pressure_sealevel;temperature;humidity
12536;BME280;6334;48.696;2.114;2023-04-24T00:02:23;99086.39;;;9.49;71.55
12536;BME280;6334;48.696;2.114;2023-04-24T00:04:54;99085.91;;;9.36;72.44
12536;BME280;6334;48.696;2.114;2023-04-24T00:07:24;99081.67;;;8.99;72.75
12536;BME280;6334;48.696;2.114;2023-04-24T00:09:55;99082.89;;;9.20;72.27
12536;BME280;6334;48.696;2.114;2023-04-24T00:12:26;99081.11;;;9.25;72.16
12536;BME280;6334;48.696;2.114;2023-04-24T00:14:56;99082.52;;;9.17;72.65
12536;BME280;6334;48.696;2.114;2023-04-24T00:17:27;99092.94;;;8.96;73.75
12536;BME280;6334;48.696;2.114;2023-04-24T00:19:57;99093.05;;;8.73;73.69
12536;BME280;6334;48.696;2.114;2023-04-24T00:22:28;99093.23;;;9.09;72.62
12536;BME280;6334;48.696;2.114;2023-04-24T00:24:58;99105.28;;;8.53;74.85
12536;BME280;6334;48.696;2.114;2023-04-24T00:27:29;99109.53;;;8.70;74.14
12536;BME280;6334;48.696;2.114;2023-04-24T00:29:59;99101.48;;;8.61;74.37
12536;BME280;6334;48.696;2.114;2023-04-24T00:32:30;99108.56;;;9.18;72.50
12536;BME280;6334;48.696;2.114;2023-04-24T00:35:00;99116.16;;;8.92;73.31
12536;BME280;6334;48.696;2.114;2023-04-24T00:37:31;99111.42;;;8.71;73.67
12536;BME280;6334;48.696;2.114;2023-04-24T00:40:01;99107.20;;;8.70;73.89
12536;BME280;6334;48.696;2.114;2023-04-24T00:42:33;99112.41;;;8.84;73.70
12536;BME280;6334;48.696;2.114;2023-04-24T00:45:03;99119.73;;;8.83;73.22
12536;BME280;6334;48.696;2.114;2023-04-24T00:47:34;99124.16;;;8.93;73.19
12536;BME280;6334;48.696;2.114;2023-04-24T00:50:04;99125.00;;;8.38;74.62
12536;BME280;6334;48.696;2.114;2023-04-24T00:52:35;99125.66;;;8.67;74.15
12536;BME280;6334;48.696;2.114;2023-04-24T00:55:06;99123.41;;;8.60;73.29
12536;BME280;6334;48.696;2.114;2023-04-24T00:57:37;99116.53;;;8.55;74.32
12536;BME280;6334;48.696;2.114;2023-04-24T01:00:07;99122.05;;;8.44;73.92
12536;BME280;6334;48.696;2.114;2023-04-24T01:02:41;99120.70;;;8.54;74.29
12536;BME280;6334;48.696;2.114;2023-04-24T01:05:08;99118.02;;;8.32;75.22
12536;BME280;6334;48.696;2.114;2023-04-24T01:07:39;99110.30;;;8.61;73.54
12536;BME280;6334;48.696;2.114;2023-04-24T01:10:09;99113.91;;;8.57;74.07
12536;BME280;6334;48.696;2.114;2023-04-24T01:12:40;99116.38;;;8.54;73.72
12536;BME280;6334;48.696;2.114;2023-04-24T01:15:10;99111.00;;;8.67;73.22
12536;BME280;6334;48.696;2.114;2023-04-24T01:17:41;99123.06;;;8.75;73.29
12536;BME280;6334;48.696;2.114;2023-04-24T01:20:11;99128.20;;;8.82;72.82
12536;BME280;6334;48.696;2.114;2023-04-24T01:22:42;99133.59;;;8.70;73.44
12536;BME280;6334;48.696;2.114;2023-04-24T01:25:12;99134.63;;;8.80;73.15
12536;BME280;6334;48.696;2.114;2023-04-24T01:27:43;99134.58;;;8.43;73.85
12536;BME280;6334;48.696;2.114;2023-04-24T01:30:13;99141.47;;;8.56;74.15
12536;BME280;6334;48.696;2.114;2023-04-24T01:32:46;99141.84;;;8.63;73.30
12536;BME280;6334;48.696;2.114;2023-04-24T01:35:14;99147.52;;;8.79;73.40
12536;BME280;6334;48.696;2.114;2023-04-24T01:37:44;99146.37;;;8.59;74.08
12536;BME280;6334;48.696;2.114;2023-04-24T01:40:15;99147.88;;;8.73;72.68
12536;BME280;6334;48.696;2.114;2023-04-24T01:42:45;99147.55;;;8.81;73.85
12536;BME280;6334;48.696;2.114;2023-04-24T01:45:16;99148.48;;;8.62;74.00
12536;BME280;6334;48.696;2.114;2023-04-24T01:47:46;99152.52;;;8.63;73.90
12536;BME280;6334;48.696;2.114;2023-04-24T01:50:17;99149.16;;;9.04;72.70
12536;BME280;6334;48.696;2.114;2023-04-24T01:52:47;99153.99;;;8.60;74.30
12536;BME280;6334;48.696;2.114;2023-04-24T01:55:17;99151.04;;;8.72;74.01
12536;BME280;6334;48.696;2.114;2023-04-24T01:57:48;99149.69;;;8.39;74.83
12536;BME280;6334;48.696;2.114;2023-04-24T02:00:18;99163.44;;;8.75;73.95
12536;BME280;6334;48.696;2.114;2023-04-24T02:02:49;99164.05;;;8.64;74.47
12536;BME280;6334;48.696;2.114;2023-04-24T02:05:19;99163.89;;;8.77;74.19
12536;BME280;6334;48.696;2.114;2023-04-24T02:07:50;99162.78;;;8.70;74.07
12536;BME280;6334;48.696;2.114;2023-04-24T02:10:21;99171.66;;;8.73;74.26
12536;BME280;6334;48.696;2.114;2023-04-24T02:12:52;99170.91;;;8.79;74.23
12536;BME280;6334;48.696;2.114;2023-04-24T02:15:22;99165.66;;;8.80;74.49
12536;BME280;6334;48.696;2.114;2023-04-24T02:17:53;99165.00;;;8.51;74.81
12536;BME280;6334;48.696;2.114;2023-04-24T02:20:23;99167.94;;;8.45;75.22
12536;BME280;6334;48.696;2.114;2023-04-24T02:22:54;99166.08;;;8.70;74.21
12536;BME280;6334;48.696;2.114;2023-04-24T02:25:24;99163.09;;;8.26;75.31
12536;BME280;6334;48.696;2.114;2023-04-24T02:27:54;99164.53;;;8.46;75.17
12536;BME280;6334;48.696;2.114;2023-04-24T02:30:25;99170.14;;;8.57;74.58
12536;BME280;6334;48.696;2.114;2023-04-24T02:32:55;99171.02;;;8.58;74.16
12536;BME280;6334;48.696;2.114;2023-04-24T02:35:26;99172.01;;;8.60;74.60
12536;BME280;6334;48.696;2.114;2023-04-24T02:37:56;99164.75;;;8.47;75.03
12536;BME280;6334;48.696;2.114;2023-04-24T02:40:27;99177.92;;;8.22;74.98
12536;BME280;6334;48.696;2.114;2023-04-24T02:42:57;99178.91;;;8.25;75.07
12536;BME280;6334;48.696;2.114;2023-04-24T02:45:28;99186.17;;;8.24;75.66
12536;BME280;6334;48.696;2.114;2023-04-24T02:47:58;99183.69;;;8.45;75.03
12536;BME280;6334;48.696;2.114;2023-04-24T02:50:29;99191.98;;;8.27;75.76
12536;BME280;6334;48.696;2.114;2023-04-24T02:52:59;99194.48;;;8.43;74.58
12536;BME280;6334;48.696;2.114;2023-04-24T02:55:29;99201.38;;;8.03;75.45
12536;BME280;6334;48.696;2.114;2023-04-24T02:58:00;99207.03;;;8.04;75.94
12536;BME280;6334;48.696;2.114;2023-04-24T03:00:30;99210.55;;;8.06;75.77
12536;BME280;6334;48.696;2.114;2023-04-24T03:03:01;99208.94;;;8.09;75.98
12536;BME280;6334;48.696;2.114;2023-04-24T03:05:31;99210.14;;;8.28;75.26
12536;BME280;6334;48.696;2.114;2023-04-24T03:08:02;99207.94;;;8.09;75.12
12536;BME280;6334;48.696;2.114;2023-04-24T03:10:32;99209.58;;;8.11;75.99
12536;BME280;6334;48.696;2.114;2023-04-24T03:13:03;99216.30;;;8.42;74.72
12536;BME280;6334;48.696;2.114;2023-04-24T03:15:33;99214.75;;;8.40;74.61
12536;BME280;6334;48.696;2.114;2023-04-24T03:18:03;99218.65;;;8.07;75.92
12536;BME280;6334;48.696;2.114;2023-04-24T03:20:34;99216.85;;;7.88;76.44
12536;BME280;6334;48.696;2.114;2023-04-24T03:23:05;99221.30;;;8.13;75.31
12536;BME280;6334;48.696;2.114;2023-04-24T03:25:36;99224.09;;;8.36;74.43
12536;BME280;6334;48.696;2.114;2023-04-24T03:28:07;99226.18;;;8.61;73.75
12536;BME280;6334;48.696;2.114;2023-04-24T03:30:37;99222.88;;;8.07;74.94
12536;BME280;6334;48.696;2.114;2023-04-24T03:33:08;99233.13;;;8.26;74.55
12536;BME280;6334;48.696;2.114;2023-04-24T03:35:38;99229.11;;;8.45;73.85
12536;BME280;6334;48.696;2.114;2023-04-24T03:38:08;99229.74;;;8.35;74.71
12536;BME280;6334;48.696;2.114;2023-04-24T03:40:39;99225.17;;;7.97;75.99
12536;BME280;6334;48.696;2.114;2023-04-24T03:43:09;99223.02;;;8.03;75.57
12536;BME280;6334;48.696;2.114;2023-04-24T03:45:40;99231.43;;;8.22;75.07
12536;BME280;6334;48.696;2.114;2023-04-24T03:48:10;99231.66;;;8.02;75.39
12536;BME280;6334;48.696;2.114;2023-04-24T03:50:41;99237.23;;;8.33;74.94
12536;BME280;6334;48.696;2.114;2023-04-24T03:53:11;99231.84;;;8.37;74.22
12536;BME280;6334;48.696;2.114;2023-04-24T03:55:42;99236.73;;;7.88;75.45
12536;BME280;6334;48.696;2.114;2023-04-24T03:58:12;99239.52;;;8.01;75.64
12536;BME280;6334;48.696;2.114;2023-04-24T04:00:42;99235.09;;;8.22;74.85
12536;BME280;6334;48.696;2.114;2023-04-24T04:03:14;99237.86;;;7.72;76.44
12536;BME280;6334;48.696;2.114;2023-04-24T04:05:44;99238.57;;;8.22;75.43
12536;BME280;6334;48.696;2.114;2023-04-24T04:08:15;99234.95;;;8.01;75.74
12536;BME280;6334;48.696;2.114;2023-04-24T04:10:45;99241.05;;;8.31;75.17
12536;BME280;6334;48.696;2.114;2023-04-24T04:13:16;99241.73;;;7.67;76.51
12536;BME280;6334;48.696;2.114;2023-04-24T04:15:46;99246.13;;;7.91;76.50
12536;BME280;6334;48.696;2.114;2023-04-24T04:18:17;99255.84;;;8.41;74.60
12536;BME280;6334;48.696;2.114;2023-04-24T04:20:47;99256.80;;;7.86;76.22
12536;BME280;6334;48.696;2.114;2023-04-24T04:23:19;99263.16;;;7.76;76.71
12536;BME280;6334;48.696;2.114;2023-04-24T04:25:49;99270.19;;;7.94;76.28
12536;BME280;6334;48.696;2.114;2023-04-24T04:28:20;99261.93;;;8.17;75.71
12536;BME280;6334;48.696;2.114;2023-04-24T04:30:50;99270.57;;;8.37;75.00
12536;BME280;6334;48.696;2.114;2023-04-24T04:33:21;99272.41;;;8.02;75.45
12536;BME280;6334;48.696;2.114;2023-04-24T04:35:51;99279.82;;;7.98;75.73
12536;BME280;6334;48.696;2.114;2023-04-24T04:38:22;99282.09;;;8.45;74.46
12536;BME280;6334;48.696;2.114;2023-04-24T04:40:52;99286.72;;;8.15;75.39
12536;BME280;6334;48.696;2.114;2023-04-24T04:43:25;99284.47;;;8.50;74.26
12536;BME280;6334;48.696;2.114;2023-04-24T04:45:53;99284.91;;;8.44;74.57
12536;BME280;6334;48.696;2.114;2023-04-24T04:48:23;99291.09;;;8.38;75.10
12536;BME280;6334;48.696;2.114;2023-04-24T04:50:54;99298.45;;;8.48;74.96
12536;BME280;6334;48.696;2.114;2023-04-24T04:53:24;99298.91;;;8.37;75.26
12536;BME280;6334;48.696;2.114;2023-04-24T04:55:55;99303.69;;;8.39;75.53
12536;BME280;6334;48.696;2.114;2023-04-24T04:58:25;99306.10;;;8.39;75.22
12536;BME280;6334;48.696;2.114;2023-04-24T05:00:56;99304.84;;;8.52;74.72
12536;BME280;6334;48.696;2.114;2023-04-24T05:03:26;99305.38;;;8.32;75.10
12536;BME280;6334;48.696;2.114;2023-04-24T05:05:57;99310.92;;;8.32;75.68
12536;BME280;6334;48.696;2.114;2023-04-24T05:08:27;99307.63;;;8.43;74.85
12536;BME280;6334;48.696;2.114;2023-04-24T05:10:57;99322.84;;;8.21;76.04
12536;BME280;6334;48.696;2.114;2023-04-24T05:13:28;99325.42;;;8.13;76.20
12536;BME280;6334;48.696;2.114;2023-04-24T05:15:58;99335.73;;;8.12;76.49
12536;BME280;6334;48.696;2.114;2023-04-24T05:18:29;99340.05;;;8.54;75.67
12536;BME280;6334;48.696;2.114;2023-04-24T05:20:59;99339.83;;;8.22;76.50
12536;BME280;6334;48.696;2.114;2023-04-24T05:23:30;99344.11;;;8.43;76.23
12536;BME280;6334;48.696;2.114;2023-04-24T05:26:00;99347.02;;;8.43;76.35
12536;BME280;6334;48.696;2.114;2023-04-24T05:28:31;99351.92;;;8.58;76.04
12536;BME280;6334;48.696;2.114;2023-04-24T05:31:01;99353.77;;;8.18;77.26
12536;BME280;6334;48.696;2.114;2023-04-24T05:33:31;99363.66;;;8.24;77.24
12536;BME280;6334;48.696;2.114;2023-04-24T05:36:03;99372.96;;;8.48;76.79
12536;BME280;6334;48.696;2.114;2023-04-24T05:38:34;99374.43;;;8.56;76.40
12536;BME280;6334;48.696;2.114;2023-04-24T05:41:04;99381.06;;;8.35;77.17
12536;BME280;6334;48.696;2.114;2023-04-24T05:43:35;99387.70;;;8.35;77.74
12536;BME280;6334;48.696;2.114;2023-04-24T05:46:05;99391.19;;;8.15;78.40
12536;BME280;6334;48.696;2.114;2023-04-24T05:48:36;99390.16;;;8.70;76.70
12536;BME280;6334;48.696;2.114;2023-04-24T05:51:07;99393.25;;;8.50;77.54
12536;BME280;6334;48.696;2.114;2023-04-24T05:53:37;99400.33;;;8.47;77.09
12536;BME280;6334;48.696;2.114;2023-04-24T05:56:08;99399.97;;;8.43;77.95
12536;BME280;6334;48.696;2.114;2023-04-24T05:58:38;99405.16;;;8.87;76.52
12536;BME280;6334;48.696;2.114;2023-04-24T06:01:09;99409.83;;;8.85;76.42
12536;BME280;6334;48.696;2.114;2023-04-24T06:03:40;99409.97;;;8.87;76.67
12536;BME280;6334;48.696;2.114;2023-04-24T06:06:10;99419.38;;;8.72;77.10
12536;BME280;6334;48.696;2.114;2023-04-24T06:08:40;99423.95;;;8.89;76.85
12536;BME280;6334;48.696;2.114;2023-04-24T06:11:11;99411.35;;;8.82;76.53
12536;BME280;6334;48.696;2.114;2023-04-24T06:13:41;99425.38;;;8.53;78.44
12536;BME280;6334;48.696;2.114;2023-04-24T06:16:12;99426.91;;;8.62;77.97
12536;BME280;6334;48.696;2.114;2023-04-24T06:18:42;99433.45;;;8.67;77.88
12536;BME280;6334;48.696;2.114;2023-04-24T06:21:12;99438.89;;;8.94;77.15
12536;BME280;6334;48.696;2.114;2023-04-24T06:23:43;99441.09;;;8.85;77.70
12536;BME280;6334;48.696;2.114;2023-04-24T06:26:13;99447.96;;;8.63;78.05
12536;BME280;6334;48.696;2.114;2023-04-24T06:28:44;99447.70;;;8.86;77.10
12536;BME280;6334;48.696;2.114;2023-04-24T06:31:14;99449.06;;;8.84;77.29
12536;BME280;6334;48.696;2.114;2023-04-24T06:33:45;99454.52;;;8.98;77.42
12536;BME280;6334;48.696;2.114;2023-04-24T06:36:15;99453.05;;;8.85;77.75
12536;BME280;6334;48.696;2.114;2023-04-24T06:38:46;99464.23;;;8.74;77.87
12536;BME280;6334;48.696;2.114;2023-04-24T06:41:16;99463.16;;;9.23;76.83
12536;BME280;6334;48.696;2.114;2023-04-24T06:43:47;99462.30;;;8.98;77.27
12536;BME280;6334;48.696;2.114;2023-04-24T06:46:17;99469.34;;;9.17;76.59
12536;BME280;6334;48.696;2.114;2023-04-24T06:48:47;99462.40;;;8.80;77.87
12536;BME280;6334;48.696;2.114;2023-04-24T06:51:18;99461.40;;;9.08;77.27
12536;BME280;6334;48.696;2.114;2023-04-24T06:53:48;99457.78;;;9.33;76.07
12536;BME280;6334;48.696;2.114;2023-04-24T06:56:19;99466.73;;;9.44;76.18
12536;BME280;6334;48.696;2.114;2023-04-24T06:58:49;99459.15;;;9.46;75.53
12536;BME280;6334;48.696;2.114;2023-04-24T07:01:20;99464.18;;;9.27;76.66
12536;BME280;6334;48.696;2.114;2023-04-24T07:03:50;99470.19;;;9.20;76.12
12536;BME280;6334;48.696;2.114;2023-04-24T07:06:21;99469.11;;;9.31;76.41
12536;BME280;6334;48.696;2.114;2023-04-24T07:08:51;99473.84;;;9.20;76.53
12536;BME280;6334;48.696;2.114;2023-04-24T07:11:21;99476.54;;;9.28;76.39
12536;BME280;6334;48.696;2.114;2023-04-24T07:13:52;99481.64;;;9.47;76.08
12536;BME280;6334;48.696;2.114;2023-04-24T07:16:22;99480.16;;;9.46;76.58
12536;BME280;6334;48.696;2.114;2023-04-24T07:18:53;99482.41;;;9.85;75.29
12536;BME280;6334;48.696;2.114;2023-04-24T07:21:23;99483.91;;;9.70;75.37
12536;BME280;6334;48.696;2.114;2023-04-24T07:23:54;99489.61;;;9.41;76.54
12536;BME280;6334;48.696;2.114;2023-04-24T07:26:25;99487.17;;;9.32;76.66
12536;BME280;6334;48.696;2.114;2023-04-24T07:28:55;99486.17;;;9.65;75.27
12536;BME280;6334;48.696;2.114;2023-04-24T07:31:25;99486.82;;;9.92;78.38
12536;BME280;6334;48.696;2.114;2023-04-24T07:33:56;99491.83;;;9.73;75.21
12536;BME280;6334;48.696;2.114;2023-04-24T07:36:26;99487.12;;;9.66;75.30
12536;BME280;6334;48.696;2.114;2023-04-24T07:38:57;99482.73;;;9.98;74.11
12536;BME280;6334;48.696;2.114;2023-04-24T07:41:27;99491.15;;;10.07;74.32
12536;BME280;6334;48.696;2.114;2023-04-24T07:43:58;99498.46;;;9.87;75.01
12536;BME280;6334;48.696;2.114;2023-04-24T07:46:29;99502.11;;;10.29;73.99
12536;BME280;6334;48.696;2.114;2023-04-24T07:48:58;99501.93;;;9.74;75.17
12536;BME280;6334;48.696;2.114;2023-04-24T07:51:31;99500.65;;;10.10;74.21
12536;BME280;6334;48.696;2.114;2023-04-24T07:54:01;99503.92;;;10.08;73.78
12536;BME280;6334;48.696;2.114;2023-04-24T07:56:31;99502.61;;;10.16;74.33
12536;BME280;6334;48.696;2.114;2023-04-24T07:59:01;99499.52;;;10.02;74.49
12536;BME280;6334;48.696;2.114;2023-04-24T08:01:31;99496.61;;;10.07;74.77
12536;BME280;6334;48.696;2.114;2023-04-24T08:04:02;99500.50;;;10.37;72.94
12536;BME280;6334;48.696;2.114;2023-04-24T08:06:32;99504.02;;;10.20;73.53
12536;BME280;6334;48.696;2.114;2023-04-24T08:09:03;99503.35;;;10.08;73.37
12536;BME280;6334;48.696;2.114;2023-04-24T08:11:33;99501.80;;;10.59;71.92
12536;BME280;6334;48.696;2.114;2023-04-24T08:14:04;99498.02;;;10.57;72.54
12536;BME280;6334;48.696;2.114;2023-04-24T08:16:34;99506.36;;;10.35;72.66
12536;BME280;6334;48.696;2.114;2023-04-24T08:19:05;99509.48;;;10.32;73.78
12536;BME280;6334;48.696;2.114;2023-04-24T08:21:35;99510.02;;;10.48;72.45
12536;BME280;6334;48.696;2.114;2023-04-24T08:24:06;99510.98;;;10.26;73.35
12536;BME280;6334;48.696;2.114;2023-04-24T08:26:37;99511.78;;;10.55;72.07
12536;BME280;6334;48.696;2.114;2023-04-24T08:29:07;99512.58;;;10.68;71.56
12536;BME280;6334;48.696;2.114;2023-04-24T08:31:38;99517.16;;;10.48;71.98
12536;BME280;6334;48.696;2.114;2023-04-24T08:34:09;99524.22;;;10.81;71.58
12536;BME280;6334;48.696;2.114;2023-04-24T08:36:39;99513.02;;;10.58;72.15
12536;BME280;6334;48.696;2.114;2023-04-24T08:39:09;99518.30;;;10.96;72.30
12536;BME280;6334;48.696;2.114;2023-04-24T08:41:41;99519.20;;;11.23;70.99
12536;BME280;6334;48.696;2.114;2023-04-24T08:44:10;99519.81;;;11.15;71.88
12536;BME280;6334;48.696;2.114;2023-04-24T08:46:41;99519.93;;;11.17;71.63
12536;BME280;6334;48.696;2.114;2023-04-24T08:49:12;99523.89;;;11.18;71.86
12536;BME280;6334;48.696;2.114;2023-04-24T08:51:42;99525.02;;;11.28;70.22
12536;BME280;6334;48.696;2.114;2023-04-24T08:54:12;99528.84;;;11.13;71.29
12536;BME280;6334;48.696;2.114;2023-04-24T08:56:43;99531.33;;;10.98;71.66
12536;BME280;6334;48.696;2.114;2023-04-24T08:59:13;99531.01;;;11.13;71.57
12536;BME280;6334;48.696;2.114;2023-04-24T09:01:43;99534.91;;;11.06;70.72
12536;BME280;6334;48.696;2.114;2023-04-24T09:04:14;99543.25;;;11.06;70.40
12536;BME280;6334;48.696;2.114;2023-04-24T09:06:44;99542.31;;;11.03;70.51
12536;BME280;6334;48.696;2.114;2023-04-24T09:09:15;99539.45;;;10.89;70.30
12536;BME280;6334;48.696;2.114;2023-04-24T09:11:45;99537.19;;;11.30;68.76
12536;BME280;6334;48.696;2.114;2023-04-24T09:14:16;99542.08;;;10.97;70.52
12536;BME280;6334;48.696;2.114;2023-04-24T09:16:46;99538.81;;;11.47;69.65
12536;BME280;6334;48.696;2.114;2023-04-24T09:19:17;99544.16;;;11.25;69.91
12536;BME280;6334;48.696;2.114;2023-04-24T09:21:47;99540.36;;;11.15;69.17
12536;BME280;6334;48.696;2.114;2023-04-24T09:24:21;99546.01;;;11.16;68.47
12536;BME280;6334;48.696;2.114;2023-04-24T09:26:57;99546.84;;;11.09;69.95
12536;BME280;6334;48.696;2.114;2023-04-24T09:29:27;99550.73;;;11.47;67.56
12536;BME280;6334;48.696;2.114;2023-04-24T09:31:57;99555.49;;;11.24;67.84
12536;BME280;6334;48.696;2.114;2023-04-24T09:34:28;99557.18;;;11.19;67.83
12536;BME280;6334;48.696;2.114;2023-04-24T09:36:58;99553.41;;;11.32;68.26
12536;BME280;6334;48.696;2.114;2023-04-24T09:39:28;99547.77;;;11.19;68.74
12536;BME280;6334;48.696;2.114;2023-04-24T09:41:59;99551.28;;;11.41;69.33
12536;BME280;6334;48.696;2.114;2023-04-24T09:44:30;99552.83;;;11.57;69.31
12536;BME280;6334;48.696;2.114;2023-04-24T09:47:00;99557.28;;;11.33;68.93
12536;BME280;6334;48.696;2.114;2023-04-24T09:49:31;99556.42;;;11.53;68.44
12536;BME280;6334;48.696;2.114;2023-04-24T09:52:04;99552.71;;;11.72;68.34
12536;BME280;6334;48.696;2.114;2023-04-24T09:54:34;99555.30;;;11.96;67.45
12536;BME280;6334;48.696;2.114;2023-04-24T09:57:04;99553.14;;;11.93;68.65
12536;BME280;6334;48.696;2.114;2023-04-24T09:59:35;99557.44;;;11.83;69.24
12536;BME280;6334;48.696;2.114;2023-04-24T10:02:16;99559.44;;;11.73;69.92
12536;BME280;6334;48.696;2.114;2023-04-24T10:04:36;99557.70;;;11.54;70.87
12536;BME280;6334;48.696;2.114;2023-04-24T10:07:06;99551.90;;;11.39;71.07
12536;BME280;6334;48.696;2.114;2023-04-24T10:09:36;99558.33;;;11.32;71.59
12536;BME280;6334;48.696;2.114;2023-04-24T10:12:07;99557.23;;;11.57;71.04
12536;BME280;6334;48.696;2.114;2023-04-24T10:14:37;99562.12;;;11.68;69.25
12536;BME280;6334;48.696;2.114;2023-04-24T10:17:08;99567.59;;;11.98;68.87
12536;BME280;6334;48.696;2.114;2023-04-24T10:19:38;99565.34;;;11.97;68.07
12536;BME280;6334;48.696;2.114;2023-04-24T10:22:09;99562.88;;;11.79;68.20
12536;BME280;6334;48.696;2.114;2023-04-24T10:24:39;99566.25;;;11.87;67.05
12536;BME280;6334;48.696;2.114;2023-04-24T10:27:10;99564.27;;;11.91;68.33
12536;BME280;6334;48.696;2.114;2023-04-24T10:29:40;99560.56;;;12.06;67.99
12536;BME280;6334;48.696;2.114;2023-04-24T10:32:11;99564.84;;;11.98;67.52
12536;BME280;6334;48.696;2.114;2023-04-24T10:34:41;99573.00;;;12.40;67.44
12536;BME280;6334;48.696;2.114;2023-04-24T10:37:11;99569.83;;;12.08;69.72
12536;BME280;6334;48.696;2.114;2023-04-24T10:39:42;99569.66;;;12.13;69.25
12536;BME280;6334;48.696;2.114;2023-04-24T10:42:16;99577.17;;;12.40;68.44
12536;BME280;6334;48.696;2.114;2023-04-24T10:44:49;99571.64;;;12.39;68.01
12536;BME280;6334;48.696;2.114;2023-04-24T10:47:19;99566.52;;;12.23;68.40
12536;BME280;6334;48.696;2.114;2023-04-24T10:49:50;99565.64;;;12.06;68.47
12536;BME280;6334;48.696;2.114;2023-04-24T10:52:20;99565.94;;;12.08;68.57
12536;BME280;6334;48.696;2.114;2023-04-24T10:54:51;99564.05;;;12.63;66.46
12536;BME280;6334;48.696;2.114;2023-04-24T11:00:36;99559.44;;;12.63;65.78
12536;BME280;6334;48.696;2.114;2023-04-24T11:02:24;99560.58;;;12.43;65.59
12536;BME280;6334;48.696;2.114;2023-04-24T11:04:51;99557.90;;;12.41;65.54
12536;BME280;6334;48.696;2.114;2023-04-24T11:07:22;99561.73;;;12.38;65.57
12536;BME280;6334;48.696;2.114;2023-04-24T11:09:58;99557.82;;;12.31;63.58
12536;BME280;6334;48.696;2.114;2023-04-24T11:12:22;99566.09;;;12.24;63.41
12536;BME280;6334;48.696;2.114;2023-04-24T11:15:00;99561.86;;;12.29;64.81
12536;BME280;6334;48.696;2.114;2023-04-24T11:17:32;99560.42;;;12.49;64.25
12536;BME280;6334;48.696;2.114;2023-04-24T11:20:06;99566.13;;;12.69;64.73
12536;BME280;6334;48.696;2.114;2023-04-24T11:22:36;99560.66;;;12.37;65.70
12536;BME280;6334;48.696;2.114;2023-04-24T11:25:06;99573.38;;;12.54;65.91
12536;BME280;6334;48.696;2.114;2023-04-24T11:27:42;99564.45;;;12.57;66.51
12536;BME280;6334;48.696;2.114;2023-04-24T11:30:18;99560.38;;;12.44;64.87
12536;BME280;6334;48.696;2.114;2023-04-24T11:32:48;99553.14;;;12.76;66.67
12536;BME280;6334;48.696;2.114;2023-04-24T11:35:19;99555.32;;;13.14;61.85
12536;BME280;6334;48.696;2.114;2023-04-24T11:37:49;99551.39;;;13.08;62.94
12536;BME280;6334;48.696;2.114;2023-04-24T11:40:20;99551.16;;;12.88;62.73
12536;BME280;6334;48.696;2.114;2023-04-24T11:42:50;99555.52;;;12.66;63.71
12536;BME280;6334;48.696;2.114;2023-04-24T11:45:27;99553.76;;;13.10;63.34
12536;BME280;6334;48.696;2.114;2023-04-24T11:47:57;99551.32;;;12.99;63.32
12536;BME280;6334;48.696;2.114;2023-04-24T11:50:28;99548.05;;;12.80;62.99
12536;BME280;6334;48.696;2.114;2023-04-24T11:52:58;99547.95;;;13.06;63.63
12536;BME280;6334;48.696;2.114;2023-04-24T11:55:29;99549.24;;;13.24;63.54
12536;BME280;6334;48.696;2.114;2023-04-24T11:57:59;99554.33;;;12.93;63.36
12536;BME280;6334;48.696;2.114;2023-04-24T12:00:30;99557.22;;;12.54;65.36
12536;BME280;6334;48.696;2.114;2023-04-24T12:03:09;99558.77;;;12.43;65.45
12536;BME280;6334;48.696;2.114;2023-04-24T12:05:39;99560.59;;;12.49;65.09
12536;BME280;6334;48.696;2.114;2023-04-24T12:08:09;99553.70;;;12.30;63.78
12536;BME280;6334;48.696;2.114;2023-04-24T12:10:40;99557.09;;;12.10;64.17
12536;BME280;6334;48.696;2.114;2023-04-24T12:13:10;99558.52;;;12.14;63.63
12536;BME280;6334;48.696;2.114;2023-04-24T12:15:41;99558.72;;;11.99;65.57
12536;BME280;6334;48.696;2.114;2023-04-24T12:18:14;99560.53;;;11.86;65.19
12536;BME280;6334;48.696;2.114;2023-04-24T12:20:44;99563.53;;;12.23;63.96
12536;BME280;6334;48.696;2.114;2023-04-24T12:23:15;99560.84;;;12.27;64.10
12536;BME280;6334;48.696;2.114;2023-04-24T12:25:45;99561.14;;;12.44;61.62
12536;BME280;6334;48.696;2.114;2023-04-24T12:28:16;99561.21;;;12.38;61.50
12536;BME280;6334;48.696;2.114;2023-04-24T12:30:49;99559.75;;;12.37;60.93
12536;BME280;6334;48.696;2.114;2023-04-24T12:33:19;99560.50;;;12.46;62.56
12536;BME280;6334;48.696;2.114;2023-04-24T12:35:52;99556.50;;;13.18;60.55
12536;BME280;6334;48.696;2.114;2023-04-24T12:38:23;99555.80;;;13.12;59.62
12536;BME280;6334;48.696;2.114;2023-04-24T12:41:09;99556.20;;;12.81;59.39
12536;BME280;6334;48.696;2.114;2023-04-24T12:43:34;99555.51;;;12.81;59.71
12536;BME280;6334;48.696;2.114;2023-04-24T12:46:05;99552.92;;;12.84;61.03
12536;BME280;6334;48.696;2.114;2023-04-24T12:48:35;99560.84;;;12.84;58.59
12536;BME280;6334;48.696;2.114;2023-04-24T12:51:06;99554.73;;;12.82;57.86
12536;BME280;6334;48.696;2.114;2023-04-24T12:53:36;99547.12;;;13.25;57.50
12536;BME280;6334;48.696;2.114;2023-04-24T12:56:06;99552.61;;;12.74;60.02
12536;BME280;6334;48.696;2.114;2023-04-24T12:58:37;99553.01;;;12.92;60.57
12536;BME280;6334;48.696;2.114;2023-04-24T13:01:07;99549.34;;;12.98;58.75
12536;BME280;6334;48.696;2.114;2023-04-24T13:03:38;99554.30;;;13.03;57.49
12536;BME280;6334;48.696;2.114;2023-04-24T13:06:08;99557.44;;;12.96;57.20
12536;BME280;6334;48.696;2.114;2023-04-24T13:08:39;99553.48;;;13.08;56.78
12536;BME280;6334;48.696;2.114;2023-04-24T13:11:09;99556.52;;;13.33;56.22
12536;BME280;6334;48.696;2.114;2023-04-24T13:13:40;99558.03;;;13.00;56.40
12536;BME280;6334;48.696;2.114;2023-04-24T13:16:10;99561.55;;;12.80;57.99
12536;BME280;6334;48.696;2.114;2023-04-24T13:18:41;99564.02;;;12.58;57.63
12536;BME280;6334;48.696;2.114;2023-04-24T13:21:11;99568.83;;;12.43;57.78
12536;BME280;6334;48.696;2.114;2023-04-24T13:23:41;99569.35;;;12.46;58.53
12536;BME280;6334;48.696;2.114;2023-04-24T13:26:12;99563.73;;;12.44;58.74
12536;BME280;6334;48.696;2.114;2023-04-24T13:28:42;99555.12;;;12.29;60.61
12536;BME280;6334;48.696;2.114;2023-04-24T13:31:13;99550.80;;;11.79;62.54
12536;BME280;6334;48.696;2.114;2023-04-24T13:33:43;99556.31;;;11.68;64.10
12536;BME280;6334;48.696;2.114;2023-04-24T13:36:15;99560.03;;;11.68;63.96
12536;BME280;6334;48.696;2.114;2023-04-24T13:38:45;99556.50;;;12.01;62.17